createdAt,value
2018-02-14T00:01:08.439Z,99.99
2018-02-14T00:02:18.427Z,99.99
2018-02-14T00:03:28.416Z,99.99
2018-02-14T00:04:37.870Z,99.99
2018-02-14T00:05:47.062Z,99.99
2018-02-14T00:06:55.983Z,99.99
2018-02-14T00:08:05.165Z,99.99
2018-02-14T00:09:14.361Z,99.99
2018-02-14T00:10:23.813Z,99.99
2018-02-14T00:11:33.529Z,99.99
2018-02-14T00:12:43.657Z,99.99
2018-02-14T00:13:53.368Z,99.99
2018-02-14T00:15:03.089Z,99.99
2018-02-14T00:16:12.808Z,99.99
2018-02-14T00:17:22.526Z,99.99
2018-02-14T00:18:32.509Z,99.99
2018-02-14T00:19:42.494Z,99.99
2018-02-14T00:20:52.473Z,99.99
2018-02-14T00:22:01.656Z,99.99
2018-02-14T00:23:11.376Z,99.99
2018-02-14T00:24:21.363Z,99.99
2018-02-14T00:25:31.346Z,99.99
2018-02-14T00:26:41.327Z,99.99
2018-02-14T00:27:51.314Z,99.99
2018-02-14T00:29:01.325Z,99.99
2018-02-14T00:30:10.813Z,99.99
2018-02-14T00:31:20.795Z,99.99
2018-02-14T00:32:29.982Z,99.99
2018-02-14T00:33:39.986Z,99.99
2018-02-14T00:34:49.712Z,99.99
2018-02-14T00:35:58.999Z,99.99
2018-02-14T00:37:07.923Z,99.99
2018-02-14T00:38:16.847Z,99.99
2018-02-14T00:39:26.306Z,99.99
2018-02-14T00:40:35.226Z,99.99
2018-02-14T00:41:44.673Z,99.99
2018-02-14T00:42:54.390Z,99.99
2018-02-14T00:44:03.581Z,99.99
2018-02-14T00:45:12.765Z,99.99
2018-02-14T00:46:21.946Z,99.99
2018-02-14T00:47:30.868Z,99.99
2018-02-14T00:48:40.326Z,99.99
2018-02-14T00:49:49.244Z,99.99
2018-02-14T00:50:58.160Z,99.99
2018-02-14T00:52:07.076Z,99.99
2018-02-14T00:53:15.991Z,99.99
2018-02-14T00:54:25.442Z,99.99
2018-02-14T00:55:34.629Z,99.99
2018-02-14T00:56:44.082Z,99.99
2018-02-14T00:57:53.535Z,99.99
2018-02-14T00:59:03.083Z,99.99
2018-02-14T01:00:13.063Z,99.99
2018-02-14T01:01:22.777Z,99.99
2018-02-14T01:02:32.226Z,99.99
2018-02-14T01:03:42.213Z,99.99
2018-02-14T01:04:51.935Z,99.99
2018-02-14T01:06:01.919Z,99.99
2018-02-14T01:07:11.640Z,99.99
2018-02-14T01:08:21.090Z,99.99
2018-02-14T01:09:30.539Z,99.99
2018-02-14T01:10:40.040Z,99.99
2018-02-14T01:11:49.757Z,99.99
2018-02-14T01:12:59.518Z,99.99
2018-02-14T01:14:08.440Z,99.99
2018-02-14T01:15:18.421Z,99.99
2018-02-14T01:16:28.403Z,99.99
2018-02-14T01:17:38.385Z,99.99
2018-02-14T01:18:48.366Z,99.99
2018-02-14T01:19:58.313Z,99.99
2018-02-14T01:21:07.500Z,99.99
2018-02-14T01:22:17.213Z,99.99
2018-02-14T01:23:27.196Z,99.99
2018-02-14T01:24:37.182Z,99.99
2018-02-14T01:25:46.633Z,99.99
2018-02-14T01:26:56.376Z,99.99
2018-02-14T01:28:05.878Z,99.99
2018-02-14T01:29:15.600Z,99.99
2018-02-14T01:30:25.585Z,99.99
2018-02-14T01:31:35.037Z,99.99
2018-02-14T01:32:44.752Z,99.99
2018-02-14T01:33:54.733Z,99.99
2018-02-14T01:35:04.183Z,99.99
2018-02-14T01:36:14.165Z,99.99
2018-02-14T01:37:23.887Z,99.99
2018-02-14T01:38:33.600Z,99.99
2018-02-14T01:39:43.312Z,99.99
2018-02-14T01:40:53.291Z,99.99
2018-02-14T01:42:03.005Z,99.99
2018-02-14T01:43:12.995Z,99.99
2018-02-14T01:44:22.989Z,99.99
2018-02-14T01:45:32.537Z,99.99
2018-02-14T01:46:42.528Z,99.99
2018-02-14T01:47:51.978Z,99.99
2018-02-14T01:49:01.694Z,99.99
2018-02-14T01:50:11.418Z,99.99
2018-02-14T01:51:21.138Z,99.99
2018-02-14T01:52:30.864Z,99.99
2018-02-14T01:53:40.575Z,99.99
2018-02-14T01:54:50.025Z,99.99
2018-02-14T01:56:00.004Z,99.99
2018-02-14T01:57:09.202Z,99.99
2018-02-14T01:58:18.925Z,99.99
2018-02-14T01:59:28.905Z,99.99
2018-02-14T02:00:38.626Z,99.99
2018-02-14T02:01:48.603Z,99.99
2018-02-14T02:02:58.583Z,99.99
2018-02-14T02:04:08.562Z,99.99
2018-02-14T02:05:18.541Z,99.99
2018-02-14T02:06:28.259Z,99.99
2018-02-14T02:07:37.709Z,99.99
2018-02-14T02:08:47.724Z,99.99
2018-02-14T02:09:57.758Z,99.99
2018-02-14T02:11:07.780Z,99.99
2018-02-14T02:12:17.765Z,99.99
2018-02-14T02:13:27.222Z,99.99
2018-02-14T02:14:37.006Z,99.99
2018-02-14T02:15:46.728Z,99.99
2018-02-14T02:16:56.710Z,99.99
2018-02-14T02:18:06.430Z,99.99
2018-02-14T02:19:16.169Z,99.99
2018-02-14T02:20:25.887Z,99.99
2018-02-14T02:21:35.342Z,99.99
2018-02-14T02:22:45.319Z,99.99
2018-02-14T02:23:55.036Z,99.99
2018-02-14T02:25:05.026Z,99.99
2018-02-14T02:26:15.107Z,99.99
2018-02-14T02:27:24.556Z,99.99
2018-02-14T02:28:34.272Z,99.99
2018-02-14T02:29:44.250Z,99.99
2018-02-14T02:30:53.708Z,99.99
2018-02-14T02:32:03.694Z,99.99
2018-02-14T02:33:13.420Z,99.99
2018-02-14T02:34:23.148Z,99.99
2018-02-14T02:35:33.160Z,99.99
2018-02-14T02:36:42.627Z,99.99
2018-02-14T02:37:52.353Z,99.99
2018-02-14T02:39:02.082Z,99.99
2018-02-14T02:40:12.069Z,99.99
2018-02-14T02:41:22.053Z,99.99
2018-02-14T02:42:31.502Z,99.99
2018-02-14T02:43:41.269Z,99.99
2018-02-14T02:44:50.995Z,99.99
2018-02-14T02:46:00.986Z,99.99
2018-02-14T02:47:10.975Z,99.99
2018-02-14T02:48:20.161Z,99.99
2018-02-14T02:49:29.886Z,99.99
2018-02-14T02:50:39.872Z,99.99
2018-02-14T02:51:49.593Z,99.99
2018-02-14T02:52:59.318Z,99.99
2018-02-14T02:54:09.300Z,99.99
2018-02-14T02:55:19.333Z,99.99
2018-02-14T02:56:28.790Z,99.99
2018-02-14T02:57:38.507Z,99.99
2018-02-14T02:58:48.496Z,99.99
2018-02-14T02:59:57.960Z,99.99
2018-02-14T03:01:07.147Z,99.99
2018-02-14T03:02:16.885Z,99.99
2018-02-14T03:03:26.875Z,99.99
2018-02-14T03:04:36.851Z,99.99
2018-02-14T03:05:46.829Z,99.99
2018-02-14T03:06:56.931Z,99.99
2018-02-14T03:08:06.919Z,99.99
2018-02-14T03:09:16.369Z,99.99
2018-02-14T03:10:26.353Z,99.99
2018-02-14T03:11:36.339Z,99.99
2018-02-14T03:12:46.325Z,99.99
2018-02-14T03:13:56.310Z,99.99
2018-02-14T03:15:06.295Z,99.99
2018-02-14T03:16:16.273Z,99.99
2018-02-14T03:17:25.992Z,99.99
2018-02-14T03:18:35.972Z,99.99
2018-02-14T03:19:45.690Z,99.99
2018-02-14T03:20:55.411Z,99.99
2018-02-14T03:22:05.397Z,99.99
2018-02-14T03:23:15.385Z,99.99
2018-02-14T03:24:25.364Z,99.99
2018-02-14T03:25:35.083Z,99.99
2018-02-14T03:26:45.060Z,99.99
2018-02-14T03:27:55.046Z,99.99
2018-02-14T03:29:04.759Z,99.99
2018-02-14T03:30:14.480Z,99.99
2018-02-14T03:31:24.212Z,99.99
2018-02-14T03:32:33.938Z,99.99
2018-02-14T03:33:43.392Z,99.99
2018-02-14T03:34:53.109Z,99.99
2018-02-14T03:36:02.920Z,99.99
2018-02-14T03:37:12.637Z,99.99
2018-02-14T03:38:22.354Z,99.99
2018-02-14T03:39:32.066Z,99.99
2018-02-14T03:40:41.778Z,99.99
2018-02-14T03:41:51.232Z,99.99
2018-02-14T03:43:01.212Z,99.99
2018-02-14T03:44:10.973Z,99.99
2018-02-14T03:45:20.954Z,99.99
2018-02-14T03:46:30.933Z,99.99
2018-02-14T03:47:40.651Z,99.99
2018-02-14T03:48:50.631Z,99.99
2018-02-14T03:50:00.348Z,99.99
2018-02-14T03:51:10.061Z,99.99
2018-02-14T03:52:19.780Z,99.99
2018-02-14T03:53:29.598Z,99.99
2018-02-14T03:54:39.314Z,99.99
2018-02-14T03:55:49.288Z,99.99
2018-02-14T03:56:59.264Z,99.99
2018-02-14T03:58:08.988Z,99.99
2018-02-14T03:59:18.978Z,99.99
2018-02-14T04:03:24.286Z,99.99
2018-02-14T04:04:34.260Z,99.99
2018-02-14T04:05:44.241Z,99.99
2018-02-14T04:06:54.223Z,99.99
2018-02-14T04:08:03.677Z,99.99
2018-02-14T04:09:13.664Z,99.99
2018-02-14T04:10:23.165Z,99.99
2018-02-14T04:11:33.148Z,99.99
2018-02-14T04:12:43.133Z,99.99
2018-02-14T04:13:53.128Z,99.99
2018-02-14T04:15:03.119Z,99.99
2018-02-14T04:16:13.103Z,99.99
2018-02-14T04:17:22.815Z,99.99
2018-02-14T04:18:32.853Z,99.99
2018-02-14T04:19:42.571Z,99.99
2018-02-14T04:20:52.555Z,99.99
2018-02-14T04:22:02.541Z,99.99
2018-02-14T04:23:12.261Z,99.99
2018-02-14T04:24:21.724Z,99.99
2018-02-14T04:25:31.708Z,99.99
2018-02-14T04:26:41.425Z,99.99
2018-02-14T04:27:50.974Z,99.99
2018-02-14T04:29:00.691Z,99.99
2018-02-14T04:30:10.675Z,99.99
2018-02-14T04:31:20.393Z,99.99
2018-02-14T04:32:30.114Z,99.99
2018-02-14T04:33:40.092Z,99.99
2018-02-14T04:34:50.071Z,99.99
2018-02-14T04:36:00.049Z,99.99
2018-02-14T04:37:10.033Z,99.99
2018-02-14T04:38:20.020Z,99.99
2018-02-14T04:39:29.571Z,99.99
2018-02-14T04:40:39.288Z,99.99
2018-02-14T04:41:49.266Z,99.99
2018-02-14T04:42:58.990Z,99.99
2018-02-14T04:44:08.442Z,99.99
2018-02-14T04:45:17.898Z,99.99
2018-02-14T04:46:27.879Z,99.99
2018-02-14T04:47:37.595Z,99.99
2018-02-14T04:48:47.312Z,99.99
2018-02-14T04:49:57.053Z,99.99
2018-02-14T04:51:07.035Z,99.99
2018-02-14T04:52:16.752Z,99.99
2018-02-14T04:53:26.468Z,99.99
2018-02-14T04:54:35.922Z,99.99
2018-02-14T04:55:45.901Z,99.99
2018-02-14T04:56:55.351Z,99.99
2018-02-14T04:58:05.071Z,99.99
2018-02-14T04:59:14.788Z,99.99
2018-02-14T05:00:24.766Z,99.99
2018-02-14T05:01:34.748Z,99.99
2018-02-14T05:02:44.731Z,99.99
2018-02-14T05:03:54.453Z,99.99
2018-02-14T05:05:03.908Z,99.99
2018-02-14T05:06:13.617Z,99.99
2018-02-14T05:07:23.337Z,99.99
2018-02-14T05:08:33.328Z,99.99
2018-02-14T05:09:43.051Z,99.99
2018-02-14T05:10:52.586Z,99.99
2018-02-14T05:12:02.310Z,99.99
2018-02-14T05:13:12.028Z,99.99
2018-02-14T05:14:21.746Z,99.99
2018-02-14T05:15:31.758Z,99.99
2018-02-14T05:16:41.479Z,99.99
2018-02-14T05:17:51.453Z,99.99
2018-02-14T05:19:01.445Z,99.99
2018-02-14T05:20:11.584Z,99.99
2018-02-14T05:21:21.327Z,99.99
2018-02-14T05:22:31.315Z,99.99
2018-02-14T05:23:41.035Z,99.99
2018-02-14T05:24:51.017Z,99.99
2018-02-14T05:26:00.748Z,99.99
2018-02-14T05:27:10.732Z,99.99
2018-02-14T05:28:20.716Z,99.99
2018-02-14T05:29:30.167Z,99.99
2018-02-14T05:30:39.887Z,99.99
2018-02-14T05:31:49.892Z,99.99
2018-02-14T05:32:59.874Z,99.99
2018-02-14T05:34:09.862Z,99.99
2018-02-14T05:35:19.579Z,99.99
2018-02-14T05:36:29.563Z,99.99
2018-02-14T05:37:39.097Z,99.99
2018-02-14T05:38:48.815Z,99.99
2018-02-14T05:39:58.800Z,99.99
2018-02-14T05:41:08.254Z,99.99
2018-02-14T05:42:17.977Z,99.99
2018-02-14T05:43:27.957Z,99.99
2018-02-14T05:44:37.944Z,99.99
2018-02-14T05:45:47.407Z,99.99
2018-02-14T05:46:57.391Z,99.99
2018-02-14T05:48:06.586Z,99.99
2018-02-14T05:49:16.633Z,99.99
2018-02-14T05:50:26.083Z,99.99
2018-02-14T05:51:36.072Z,99.99
2018-02-14T05:52:45.528Z,99.99
2018-02-14T05:53:54.978Z,99.99
2018-02-14T05:55:04.703Z,99.99
2018-02-14T05:56:14.151Z,99.99
2018-02-14T05:57:23.601Z,99.99
2018-02-14T05:58:33.624Z,99.99
2018-02-14T05:59:43.340Z,99.99
2018-02-14T06:00:53.113Z,99.99
2018-02-14T06:02:02.828Z,99.99
2018-02-14T06:03:12.556Z,99.99
2018-02-14T06:04:22.540Z,99.99
2018-02-14T06:05:31.996Z,99.99
2018-02-14T06:06:41.713Z,99.99
2018-02-14T06:07:51.697Z,99.99
2018-02-14T06:09:01.680Z,99.99
2018-02-14T06:10:11.668Z,99.99
2018-02-14T06:11:21.654Z,99.99
2018-02-14T06:12:31.738Z,99.99
2018-02-14T06:13:41.735Z,99.99
2018-02-14T06:14:51.458Z,99.99
2018-02-14T06:16:01.455Z,99.99
2018-02-14T06:17:11.444Z,99.99
2018-02-14T06:18:21.430Z,99.99
2018-02-14T06:19:30.621Z,99.99
2018-02-14T06:20:40.342Z,99.99
2018-02-14T06:21:50.325Z,99.99
2018-02-14T06:23:00.122Z,99.99
2018-02-14T06:24:10.108Z,99.99
2018-02-14T06:25:20.094Z,99.99
2018-02-14T06:26:30.108Z,99.99
2018-02-14T06:27:40.105Z,99.99
2018-02-14T06:28:50.089Z,99.99
2018-02-14T06:29:59.545Z,99.99
2018-02-14T06:31:09.535Z,99.99
2018-02-14T06:32:19.259Z,99.99
2018-02-14T06:33:28.995Z,99.99
2018-02-14T06:34:38.719Z,99.99
2018-02-14T06:35:48.706Z,99.99
2018-02-14T06:36:58.160Z,99.99
2018-02-14T06:38:07.611Z,99.99
2018-02-14T06:39:17.599Z,99.99
2018-02-14T06:40:27.057Z,99.99
2018-02-14T06:41:36.828Z,99.99
2018-02-14T06:42:46.281Z,99.99
2018-02-14T06:43:56.266Z,99.99
2018-02-14T06:45:05.986Z,99.99
2018-02-14T06:46:15.973Z,99.99
2018-02-14T06:47:25.962Z,99.99
2018-02-14T06:48:35.947Z,99.99
2018-02-14T06:49:45.663Z,99.99
2018-02-14T06:50:55.121Z,99.99
2018-02-14T06:52:04.843Z,99.99
2018-02-14T06:53:14.606Z,99.99
2018-02-14T06:54:24.074Z,99.99
2018-02-14T06:55:33.800Z,99.99
2018-02-14T06:56:43.519Z,99.99
2018-02-14T06:57:53.238Z,99.99
2018-02-14T06:59:03.227Z,99.99
2018-02-14T07:00:12.949Z,99.99
2018-02-14T07:01:22.943Z,99.99
2018-02-14T07:02:32.925Z,99.99
2018-02-14T07:03:42.647Z,99.99
2018-02-14T07:04:52.737Z,99.99
2018-02-14T07:06:02.195Z,99.99
2018-02-14T07:07:11.649Z,99.99
2018-02-14T07:08:21.635Z,99.99
2018-02-14T07:09:31.367Z,99.99
2018-02-14T07:10:41.360Z,99.99
2018-02-14T07:11:51.384Z,99.99
2018-02-14T07:13:01.379Z,99.99
2018-02-14T07:14:11.102Z,99.99
2018-02-14T07:15:20.554Z,99.99
2018-02-14T07:16:30.536Z,99.99
2018-02-14T07:17:40.522Z,99.99
2018-02-14T07:18:50.513Z,99.99
2018-02-14T07:20:00.506Z,99.99
2018-02-14T07:21:09.693Z,99.99
2018-02-14T07:22:19.151Z,99.99
2018-02-14T07:23:29.136Z,99.99
2018-02-14T07:24:39.128Z,99.99
2018-02-14T07:25:48.850Z,99.99
2018-02-14T07:26:58.567Z,99.99
2018-02-14T07:28:08.395Z,99.99
2018-02-14T07:29:18.120Z,99.99
2018-02-14T07:30:27.862Z,99.99
2018-02-14T07:31:37.851Z,99.99
2018-02-14T07:32:47.842Z,99.99
2018-02-14T07:33:57.034Z,99.99
2018-02-14T07:35:06.758Z,99.99
2018-02-14T07:36:16.214Z,99.99
2018-02-14T07:37:25.934Z,99.99
2018-02-14T07:38:35.650Z,99.99
2018-02-14T07:39:45.938Z,99.99
2018-02-14T07:40:55.659Z,99.99
2018-02-14T07:42:05.652Z,99.99
2018-02-14T07:43:15.369Z,99.99
2018-02-14T07:44:25.092Z,99.99
2018-02-14T07:45:34.863Z,99.99
2018-02-14T07:46:44.623Z,99.99
2018-02-14T07:47:54.611Z,99.99
2018-02-14T07:49:04.330Z,99.99
2018-02-14T07:50:14.315Z,99.99
2018-02-14T07:51:24.299Z,99.99
2018-02-14T07:52:33.759Z,99.99
2018-02-14T07:53:43.482Z,99.99
2018-02-14T07:54:53.202Z,99.99
2018-02-14T07:56:03.193Z,99.99
2018-02-14T07:57:13.226Z,99.99
2018-02-14T07:58:22.675Z,99.99
2018-02-14T07:59:32.404Z,99.99
2018-02-14T08:00:42.125Z,99.99
2018-02-14T08:01:52.114Z,99.99
2018-02-14T08:03:01.835Z,99.99
2018-02-14T08:04:11.557Z,99.99
2018-02-14T08:05:21.279Z,99.99
2018-02-14T08:06:31.266Z,99.99
2018-02-14T08:07:41.260Z,99.99
2018-02-14T08:08:51.299Z,99.99
2018-02-14T08:10:01.018Z,99.99
2018-02-14T08:11:10.741Z,99.99
2018-02-14T08:12:20.734Z,99.99
2018-02-14T08:13:30.720Z,99.99
2018-02-14T08:14:40.542Z,99.99
2018-02-14T08:15:50.582Z,99.99
2018-02-14T08:17:00.617Z,99.99
2018-02-14T08:18:10.705Z,99.99
2018-02-14T08:19:20.433Z,99.99
2018-02-14T08:20:29.991Z,99.99
2018-02-14T08:21:39.446Z,99.99
2018-02-14T08:22:49.437Z,99.99
2018-02-14T08:23:58.672Z,99.99
2018-02-14T08:25:08.132Z,99.99
2018-02-14T08:26:17.858Z,99.99
2018-02-14T08:27:27.577Z,99.99
2018-02-14T08:28:37.296Z,99.99
2018-02-14T08:29:47.291Z,99.99
2018-02-14T08:30:57.012Z,99.99
2018-02-14T08:32:07.004Z,99.99
2018-02-14T08:33:16.731Z,99.99
2018-02-14T08:34:26.448Z,99.99
2018-02-14T08:35:35.991Z,99.99
2018-02-14T08:36:47.223Z,99.99
2018-02-14T08:37:57.454Z,99.99
2018-02-14T08:39:07.579Z,99.99
2018-02-14T08:40:17.765Z,99.99
2018-02-14T08:41:28.919Z,99.99
2018-02-14T08:42:38.773Z,99.99
2018-02-14T08:43:52.194Z,99.99
2018-02-14T08:45:02.372Z,99.99
2018-02-14T08:46:12.789Z,99.99
2018-02-14T08:47:22.777Z,99.99
2018-02-14T08:48:32.523Z,99.99
2018-02-14T08:49:42.544Z,99.99
2018-02-14T08:50:52.002Z,99.99
2018-02-14T08:52:01.991Z,99.99
2018-02-14T08:53:11.977Z,99.99
2018-02-14T08:54:21.703Z,99.99
2018-02-14T08:55:31.724Z,99.99
2018-02-14T08:56:41.713Z,99.99
2018-02-14T08:57:51.432Z,99.99
2018-02-14T08:59:00.888Z,99.99
2018-02-14T09:00:10.608Z,99.99
2018-02-14T09:01:20.064Z,99.99
2018-02-14T09:02:30.049Z,99.99
2018-02-14T09:03:39.771Z,99.99
2018-02-14T09:04:49.220Z,99.99
2018-02-14T09:05:58.413Z,99.99
2018-02-14T09:07:08.182Z,99.99
2018-02-14T09:08:18.171Z,99.99
2018-02-14T09:09:27.628Z,99.99
2018-02-14T09:10:37.619Z,99.99
2018-02-14T09:11:47.082Z,99.99
2018-02-14T09:12:57.066Z,99.99
2018-02-14T09:14:06.787Z,99.99
2018-02-14T09:15:16.244Z,99.99
2018-02-14T09:16:26.228Z,99.99
2018-02-14T09:17:35.948Z,99.99
2018-02-14T09:18:45.662Z,99.99
2018-02-14T09:19:55.653Z,99.99
2018-02-14T09:21:05.382Z,99.99
2018-02-14T09:22:15.099Z,99.99
2018-02-14T09:23:24.290Z,99.99
2018-02-14T09:24:34.272Z,99.99
2018-02-14T09:25:44.027Z,99.99
2018-02-14T09:26:54.052Z,99.99
2018-02-14T09:28:03.523Z,99.99
2018-02-14T09:29:13.242Z,99.99
2018-02-14T09:30:22.752Z,99.99
2018-02-14T09:31:32.470Z,99.99
2018-02-14T09:32:42.188Z,99.99
2018-02-14T09:33:51.907Z,99.99
2018-02-14T09:35:01.887Z,99.99
2018-02-14T09:36:11.612Z,99.99
2018-02-14T09:37:21.078Z,99.99
2018-02-14T09:38:30.949Z,99.99
2018-02-14T09:39:40.670Z,99.99
2018-02-14T09:40:50.390Z,99.99
2018-02-14T09:42:00.478Z,99.99
2018-02-14T09:43:09.937Z,99.99
2018-02-14T09:44:19.927Z,99.99
2018-02-14T09:45:29.915Z,99.99
2018-02-14T09:46:39.673Z,99.99
2018-02-14T09:47:49.658Z,99.99
2018-02-14T09:48:59.118Z,99.99
2018-02-14T09:50:08.851Z,99.99
2018-02-14T09:51:18.045Z,99.99
2018-02-14T09:52:28.033Z,99.99
2018-02-14T09:53:38.014Z,99.99
2018-02-14T09:54:48.004Z,99.99
2018-02-14T09:55:57.990Z,99.99
2018-02-14T09:57:07.987Z,99.99
2018-02-14T09:58:17.715Z,99.99
2018-02-14T09:59:27.175Z,99.99
2018-02-14T10:00:36.632Z,99.99
2018-02-14T10:01:46.621Z,99.99
2018-02-14T10:02:56.083Z,99.99
2018-02-14T10:04:05.813Z,99.99
2018-02-14T10:05:15.808Z,99.99
2018-02-14T10:06:25.530Z,99.99
2018-02-14T10:07:35.299Z,99.99
2018-02-14T10:08:45.036Z,99.99
2018-02-14T10:09:54.760Z,99.99
2018-02-14T10:11:04.757Z,99.99
2018-02-14T10:12:14.542Z,99.99
2018-02-14T10:13:24.271Z,99.99
2018-02-14T10:14:34.263Z,99.99
2018-02-14T10:15:43.990Z,99.99
2018-02-14T10:16:54.022Z,99.99
2018-02-14T10:18:04.080Z,99.99
2018-02-14T10:19:13.813Z,99.99
2018-02-14T10:20:23.429Z,99.99
2018-02-14T10:21:33.130Z,99.99
2018-02-14T10:22:42.999Z,99.99
2018-02-14T10:23:53.000Z,99.99
2018-02-14T10:25:02.995Z,99.99
2018-02-14T10:26:12.924Z,99.99
2018-02-14T10:27:23.419Z,99.99
2018-02-14T10:28:32.932Z,99.99
2018-02-14T10:29:42.921Z,99.99
2018-02-14T10:30:53.298Z,99.99
2018-02-14T10:32:03.283Z,99.99
2018-02-14T10:33:13.014Z,99.99
2018-02-14T10:34:22.769Z,99.99
2018-02-14T10:35:32.536Z,99.99
2018-02-14T10:36:42.283Z,99.99
2018-02-14T10:37:52.026Z,99.99
2018-02-14T10:39:01.753Z,99.99
2018-02-14T10:40:11.861Z,99.99
2018-02-14T10:41:21.917Z,99.99
2018-02-14T10:42:31.928Z,99.99
2018-02-14T10:43:41.663Z,99.99
2018-02-14T10:44:51.654Z,99.99
2018-02-14T10:46:01.113Z,99.99
2018-02-14T10:47:11.101Z,99.99
2018-02-14T10:48:21.096Z,99.99
2018-02-14T10:49:31.093Z,99.99
2018-02-14T10:50:40.825Z,99.99
2018-02-14T10:51:50.555Z,99.99
2018-02-14T10:53:00.547Z,99.99
2018-02-14T10:54:10.538Z,99.99
2018-02-14T10:55:20.531Z,99.99
2018-02-14T10:56:30.256Z,99.99
2018-02-14T10:57:40.362Z,99.99
2018-02-14T10:58:49.554Z,99.99
2018-02-14T10:59:59.283Z,99.99
2018-02-14T11:01:09.028Z,99.99
2018-02-14T11:02:19.087Z,99.99
2018-02-14T11:03:29.132Z,99.99
2018-02-14T11:04:39.124Z,99.99
2018-02-14T11:05:48.855Z,99.99
2018-02-14T11:06:58.588Z,99.99
2018-02-14T11:08:07.779Z,99.99
2018-02-14T11:09:17.506Z,99.99
2018-02-14T11:10:27.496Z,99.99
2018-02-14T11:11:36.955Z,99.99
2018-02-14T11:12:46.408Z,99.99
2018-02-14T11:13:56.170Z,99.99
2018-02-14T11:15:05.368Z,99.99
2018-02-14T11:16:14.828Z,99.99
2018-02-14T11:17:24.553Z,99.99
2018-02-14T11:18:34.279Z,99.99
2018-02-14T11:19:44.005Z,99.99
2018-02-14T11:20:54.053Z,99.99
2018-02-14T11:22:03.516Z,99.99
2018-02-14T11:23:12.977Z,99.99
2018-02-14T11:24:22.438Z,99.99
2018-02-14T11:25:31.902Z,99.99
2018-02-14T11:26:41.626Z,99.99
2018-02-14T11:27:51.613Z,99.99
2018-02-14T11:29:01.350Z,99.99
2018-02-14T11:30:10.806Z,99.99
2018-02-14T11:31:20.795Z,99.99
2018-02-14T11:32:30.527Z,99.99
2018-02-14T11:33:40.253Z,99.99
2018-02-14T11:34:50.238Z,99.99
2018-02-14T11:36:00.223Z,99.99
2018-02-14T11:37:10.212Z,99.99
2018-02-14T11:38:19.935Z,99.99
2018-02-14T11:39:29.922Z,99.99
2018-02-14T11:40:39.109Z,99.99
2018-02-14T11:41:48.832Z,99.99
2018-02-14T11:42:58.563Z,99.99
2018-02-14T11:44:08.565Z,99.99
2018-02-14T11:45:18.021Z,99.99
2018-02-14T11:46:27.744Z,99.99
2018-02-14T11:47:37.731Z,99.99
2018-02-14T11:48:47.455Z,99.99
2018-02-14T11:49:57.180Z,99.99
2018-02-14T11:51:06.900Z,99.99
2018-02-14T11:52:16.928Z,99.99
2018-02-14T11:53:26.712Z,99.99
2018-02-14T11:54:36.439Z,99.99
2018-02-14T11:55:46.428Z,99.99
2018-02-14T11:56:56.415Z,99.99
2018-02-14T11:58:06.411Z,99.99
2018-02-14T11:59:16.406Z,99.99
2018-02-14T12:00:26.407Z,99.99
2018-02-14T12:01:36.402Z,99.99
2018-02-14T12:02:45.865Z,99.99
2018-02-14T12:03:55.854Z,99.99
2018-02-14T12:05:05.313Z,99.99
2018-02-14T12:06:14.551Z,99.99
2018-02-14T12:07:24.472Z,99.99
2018-02-14T12:08:34.193Z,99.99
2018-02-14T12:09:44.182Z,99.99
2018-02-14T12:10:53.907Z,99.99
2018-02-14T12:12:03.104Z,99.99
2018-02-14T12:13:13.152Z,99.99
2018-02-14T12:14:23.145Z,99.99
2018-02-14T12:15:32.868Z,99.99
2018-02-14T12:16:42.852Z,99.99
2018-02-14T12:17:52.842Z,99.99
2018-02-14T12:19:02.568Z,99.9
2018-02-14T12:20:12.560Z,99.52
2018-02-14T12:21:22.571Z,99.99
2018-02-14T12:22:32.299Z,99.99
2018-02-14T12:23:42.289Z,99.99
2018-02-14T12:24:52.019Z,99.99
2018-02-14T12:26:01.479Z,99.99
2018-02-14T12:27:11.200Z,99.99
2018-02-14T12:28:21.186Z,99.99
2018-02-14T12:29:30.651Z,99.99
2018-02-14T12:30:40.673Z,99.99
2018-02-14T12:31:50.662Z,99.99
2018-02-14T12:33:00.654Z,99.99
2018-02-14T12:34:09.848Z,99.99
2018-02-14T12:35:19.308Z,99.99
2018-02-14T12:36:28.814Z,99.99
2018-02-14T12:37:38.268Z,99.99
2018-02-14T12:38:47.720Z,99.99
2018-02-14T12:39:57.705Z,99.99
2018-02-14T12:41:07.164Z,99.99
2018-02-14T12:42:17.163Z,99.99
2018-02-14T12:43:26.893Z,99.99
2018-02-14T12:44:36.623Z,99.99
2018-02-14T12:45:46.657Z,99.99
2018-02-14T12:46:56.117Z,99.99
2018-02-14T12:48:05.890Z,99.99
2018-02-14T12:49:15.919Z,99.99
2018-02-14T12:50:25.917Z,99.99
2018-02-14T12:51:35.640Z,99.99
2018-02-14T12:52:45.364Z,99.99
2018-02-14T12:53:55.357Z,99.99
2018-02-14T12:55:04.823Z,99.99
2018-02-14T12:56:14.333Z,99.99
2018-02-14T12:57:24.322Z,99.99
2018-02-14T12:58:34.048Z,99.99
2018-02-14T12:59:43.241Z,99.99
2018-02-14T13:00:52.967Z,99.99
2018-02-14T13:02:02.423Z,99.99
2018-02-14T13:03:11.884Z,99.99
2018-02-14T13:04:21.873Z,99.99
2018-02-14T13:05:31.596Z,99.99
2018-02-14T13:06:41.053Z,99.99
2018-02-14T13:07:50.778Z,99.99
2018-02-14T13:09:00.770Z,99.99
2018-02-14T13:10:10.500Z,99.99
2018-02-14T13:11:19.956Z,99.99
2018-02-14T13:12:29.678Z,99.99
2018-02-14T13:13:39.661Z,99.99
2018-02-14T13:14:49.649Z,99.99
2018-02-14T13:15:59.644Z,99.99
2018-02-14T13:17:09.370Z,99.99
2018-02-14T13:18:19.359Z,99.99
2018-02-14T13:19:29.082Z,99.99
2018-02-14T13:20:39.072Z,99.99
2018-02-14T13:21:48.837Z,99.99
2018-02-14T13:22:58.653Z,99.99
2018-02-14T13:24:08.383Z,99.99
2018-02-14T13:25:18.106Z,99.99
2018-02-14T13:26:28.097Z,99.99
2018-02-14T13:27:37.820Z,99.99
2018-02-14T13:28:47.818Z,99.99
2018-02-14T13:29:57.809Z,99.99
2018-02-14T13:31:07.539Z,99.99
2018-02-14T13:32:17.265Z,99.99
2018-02-14T13:33:27.257Z,99.99
2018-02-14T13:34:37.267Z,99.99
2018-02-14T13:35:47.250Z,99.99
2018-02-14T13:36:56.495Z,99.99
2018-02-14T13:38:06.274Z,99.99
2018-02-14T13:39:16.001Z,99.99
2018-02-14T13:40:26.100Z,99.99
2018-02-14T13:41:36.240Z,99.99
2018-02-14T13:42:46.220Z,99.99
2018-02-14T13:43:55.940Z,99.99
2018-02-14T13:45:05.394Z,99.99
2018-02-14T13:46:15.434Z,99.99
2018-02-14T13:47:24.890Z,99.99
2018-02-14T13:48:34.620Z,99.99
2018-02-14T13:49:44.084Z,99.99
2018-02-14T13:50:53.807Z,99.99
2018-02-14T13:52:03.265Z,99.99
2018-02-14T13:53:13.255Z,99.99
2018-02-14T13:54:22.712Z,99.99
2018-02-14T13:55:32.168Z,99.99
2018-02-14T13:56:41.891Z,99.99
2018-02-14T13:57:51.877Z,99.1
2018-02-14T13:59:01.599Z,98.82
2018-02-14T14:00:11.602Z,99.48
2018-02-14T14:01:21.666Z,98.63
2018-02-14T14:02:31.388Z,98.53
2018-02-14T14:03:40.845Z,97.77
2018-02-14T14:04:50.568Z,98.34
2018-02-14T14:05:59.492Z,98.34
2018-02-14T14:07:09.218Z,98.2
2018-02-14T14:08:19.208Z,97.96
2018-02-14T14:09:28.979Z,98.29
2018-02-14T14:10:38.435Z,97.72
2018-02-14T14:11:48.154Z,97.53
2018-02-14T14:12:57.879Z,97.44
2018-02-14T14:14:07.874Z,96.97
2018-02-14T14:15:17.595Z,96.5
2018-02-14T14:16:27.321Z,96.02
2018-02-14T14:17:36.777Z,96.31
2018-02-14T14:18:46.766Z,96.26
2018-02-14T14:19:56.491Z,96.78
2018-02-14T14:21:06.214Z,96.31
2018-02-14T14:22:16.214Z,96.02
2018-02-14T14:23:25.673Z,96.12
2018-02-14T14:24:34.863Z,96.4
2018-02-14T14:25:44.591Z,97.16
2018-02-14T14:26:54.046Z,96.4
2018-02-14T14:28:02.970Z,96.88
2018-02-14T14:29:12.958Z,96.78
2018-02-14T14:30:22.686Z,96.4
2018-02-14T14:31:32.414Z,96.21
2018-02-14T14:32:42.179Z,96.21
2018-02-14T14:33:51.638Z,95.64
2018-02-14T14:35:00.828Z,95.45
2018-02-14T14:36:10.555Z,94.89
2018-02-14T14:37:20.276Z,95.45
2018-02-14T14:38:30.099Z,94.89
2018-02-14T14:39:39.825Z,95.45
2018-02-14T14:40:49.810Z,96.02
2018-02-14T14:41:59.794Z,95.55
2018-02-14T14:43:09.567Z,96.78
2018-02-14T14:44:19.555Z,96.69
2018-02-14T14:45:29.278Z,97.25
2018-02-14T14:46:39.306Z,97.25
2018-02-14T14:47:49.308Z,98.01
2018-02-14T14:48:59.030Z,98.39
2018-02-14T14:50:08.220Z,99.52
2018-02-14T14:51:17.943Z,99.9
2018-02-14T14:52:27.938Z,99.99
2018-02-14T14:53:37.939Z,99.99
2018-02-14T14:54:47.968Z,99.99
2018-02-14T14:55:58.057Z,99.99
2018-02-14T14:57:07.780Z,99.99
2018-02-14T14:58:17.810Z,99.99
2018-02-14T14:59:27.000Z,99.99
2018-02-14T15:00:36.456Z,99.99
2018-02-14T15:01:46.444Z,99.99